• Join FlightAware (Why Join?)
  • Login
  • US Flag 
12:04AM EDT


 

Airport Tracker/Info


-or-


 

Live Flight TrackerFlight Track Log ✈ N6ZQ ✈ 04-Dec-2013 ✈ KRMN - KLCQ

Flight Track Log - Related Links

Times and Time Zones

All times are in EST time to prevent confusion due to time zone crossing. See the N6ZQ flight status page for this flight to view local times or setup timezone preferences in your user account.

Time Position Orientation Groundspeed Altitude Reporting Facility
EST Latitude Longitude Course Direction KTS MPH feet Rate Location/Type
09:54AM 38.3167 -77.4000 206° Southwest 169 194 3,100  Level Potomac TRACON
09:55AM 38.2833 -77.4000 180° South 152 175 4,500 1,320 Climbing Potomac TRACON
09:56AM 38.2333 -77.4000 180° South 152 175 5,800 960 Climbing Potomac TRACON
09:57AM 38.2000 -77.4333 218° Southwest 148 170 6,500 600 Climbing Potomac TRACON
09:58AM 38.1667 -77.4667 218° Southwest 175 201 7,000 240 Climbing Potomac TRACON
09:59AM 38.1335 -77.6398 206° Southwest  Level Estimated
09:59AM 38.1167 -77.5000 208° Southwest 196 226 7,000  Level Potomac TRACON
10:00AM 38.0667 -77.5167 195° South 191 220 7,000  Level Potomac TRACON
10:01AM 38.0167 -77.5500 208° Southwest 189 217 7,000  Level Potomac TRACON
10:03AM 37.9467 -77.5687 205° Southwest  Level FlightAware Approximate
10:03AM 37.9333 -77.6000 205° Southwest 184 212 7,000  Level Potomac TRACON
10:04AM 37.8833 -77.6167 195° South 185 213 7,000  Level Potomac TRACON
10:05AM 37.8333 -77.6500 208° Southwest 178 205 7,100  Climbing Potomac TRACON
10:06AM 37.8000 -77.6667 202° Southwest 184 212 7,100 300 Level Potomac TRACON
10:07AM 37.7500 -77.7000 208° Southwest 162 186 7,800 600 Climbing Potomac TRACON
10:08AM 37.7269 -77.7133 205° Southwest 162 186 8,200 600 Climbing Washington Center
10:09AM 37.6869 -77.7306 199° South 157 181 8,900 660 Climbing Washington Center
10:10AM 37.6469 -77.7531 204° Southwest 157 181 9,600 600 Climbing Washington Center
10:11AM 37.6006 -77.7858 209° Southwest 163 188 10,100 240 Climbing Washington Center
10:12AM 37.5519 -77.8131 204° Southwest 176 203 10,100 -60 Level Washington Center
10:13AM 37.5033 -77.8458 208° Southwest 187 215 10,000 -60 Descending Washington Center
10:14AM 37.4611 -77.8811 214° Southwest 193 222 10,000  Level Washington Center
10:15AM 37.4167 -77.9164 212° Southwest 193 222 10,000  Level Washington Center
10:16AM 37.3719 -77.9542 214° Southwest 188 216 10,100  Climbing Washington Center
10:17AM 37.3297 -77.9894 214° Southwest 188 216 10,100 -60 Level Washington Center
10:18AM 37.2892 -78.0247 215° Southwest 188 216 10,000  Descending Washington Center
10:19AM 37.2447 -78.0600 212° Southwest 188 216 10,100  Climbing Washington Center
10:20AM 37.1981 -78.0950 211° Southwest 188 216 10,000  Descending Washington Center
10:21AM 37.1556 -78.1300 213° Southwest 188 216 10,100  Climbing Washington Center
10:22AM 37.1175 -78.1653 216° Southwest 188 216 10,100 -60 Level Washington Center
10:23AM 37.0750 -78.1978 211° Southwest 188 216 10,000  Descending Washington Center
10:24AM 37.0261 -78.2403 215° Southwest 188 216 10,100  Climbing Washington Center
10:25AM 36.9836 -78.2725 211° Southwest 188 216 10,100 -60 Level Washington Center
10:26AM 36.9411 -78.3075 213° Southwest 188 216 10,000  Descending Washington Center
10:27AM 36.8964 -78.3422 212° Southwest 188 216 10,100  Climbing Washington Center
10:28AM 36.8539 -78.3744 211° Southwest 188 216 10,100  Level Washington Center
10:29AM 36.8114 -78.4094 213° Southwest 188 216 10,100  Level Washington Center
10:30AM 36.7711 -78.4442 215° Southwest 188 216 10,100 -60 Level Washington Center
10:31AM 36.7328 -78.4764 214° Southwest 188 216 10,000  Descending Washington Center
10:32AM 36.6881 -78.5083 210° Southwest 188 216 10,100  Climbing Washington Center
10:33AM 36.6411 -78.5506 216° Southwest 188 216 10,100 -180 Level Washington Center
10:33AM 36.6200 -78.5656 210° Southwest 181 208 9,900  Descending Washington Center
10:34AM 36.5986 -78.5853 217° Southwest 188 216 10,100 60 Climbing Washington Center
10:34AM 36.5794 -78.6000 212° Southwest 180 207 10,000  Descending Washington Center
10:35AM 36.5561 -78.6172 211° Southwest 188 216 10,100  Climbing Washington Center
10:35AM 36.5369 -78.6319 212° Southwest 181 208 10,000  Descending Washington Center
10:36AM 36.5156 -78.6519 217° Southwest 188 216 10,100  Climbing Washington Center
10:36AM 36.4942 -78.6667 209° Southwest 181 208 10,000  Descending Washington Center
10:37AM 36.4731 -78.6811 209° Southwest 188 216 10,100  Climbing Washington Center
10:37AM 36.4539 -78.6986 216° Southwest 180 207 10,000  Descending Washington Center
10:38AM 36.4303 -78.7183 214° Southwest 188 216 10,100  Climbing Washington Center
10:38AM 36.4089 -78.7356 213° Southwest 179 206 10,000 -120 Descending Washington Center
10:39AM 36.3942 -78.7453 208° Southwest 188 216 10,000  Level Washington Center
10:39AM 36.3644 -78.7672 211° Southwest 180 207 10,000  Level Washington Center
10:40AM 36.3428 -78.7947 226° Southwest 188 216 10,000  Level Washington Center
10:40AM 36.3297 -78.8097 223° Southwest 177 204 10,000  Level Washington Center
10:41AM 36.3022 -78.8292 210° Southwest 182 209 10,000  Level Washington Center
10:41AM 36.2894 -78.8339 197° South 182 209 10,000  Level Washington Center
10:42AM 36.2578 -78.8531 206° Southwest 182 209 10,000  Level Washington Center
10:42AM 36.2469 -78.8628 216° Southwest 178 205 10,000  Level Washington Center
10:44AM 36.1894 -78.9094 213° Southwest 178 205 10,000  Level Washington Center
10:45AM 36.1531 -78.9361 211° Southwest 178 205 10,000  Level Washington Center
10:46AM 36.1106 -78.9703 213° Southwest 179 206 10,000  Level Washington Center
10:47AM 36.0678 -79.0019 211° Southwest 179 206 10,000  Level Washington Center
10:48AM 36.0272 -79.0361 214° Southwest 177 204 10,000  Level Washington Center
10:49AM 35.9844 -79.0753 217° Southwest 179 206 10,000  Level Washington Center
10:50AM 35.9397 -79.1042 208° Southwest 181 208 10,000  Level Washington Center
10:51AM 35.8992 -79.1356 212° Southwest 180 207 10,000  Level Washington Center
10:51AM 35.8650 -79.1622 212° Southwest 181 208 10,000  Level Washington Center
10:53AM 35.8219 -79.2067 220° Southwest 181 208 10,000  Level Washington Center
10:54AM 35.7792 -79.2378 211° Southwest 182 209 10,000  Level Washington Center
10:55AM 35.7281 -79.2739 210° Southwest 185 213 10,000  Level Washington Center
10:56AM 35.6872 -79.3078 214° Southwest 181 208 10,000 -60 Level Washington Center
10:58AM 35.6067 -79.3583 207° Southwest  Level FlightAware Approximate
11:05AM 35.3017 -79.5727 213° Southwest  Level FlightAware Approximate
11:06AM 35.2597 -79.6065 213° Southwest  Level FlightAware Approximate
11:07AM 35.2176 -79.6402 213° Southwest  Level FlightAware Approximate
11:08AM 35.1756 -79.6739 213° Southwest  Level FlightAware Approximate
11:09AM 35.1335 -79.7075 213° Southwest  Level FlightAware Approximate
11:10AM 35.0915 -79.7411 213° Southwest  Level FlightAware Approximate
11:11AM 35.0494 -79.7747 213° Southwest  Level FlightAware Approximate
11:12AM 35.0074 -79.8082 213° Southwest  Level FlightAware Approximate
11:13AM 34.9653 -79.8418 213° Southwest  Level FlightAware Approximate
11:14AM 34.9232 -79.8752 213° Southwest  Level FlightAware Approximate
11:15AM 34.8811 -79.9087 213° Southwest  Level FlightAware Approximate
11:16AM 34.8387 -79.9415 211° Southwest  Level FlightAware Approximate
11:17AM 34.7954 -79.9725 210° Southwest  Level FlightAware Approximate
11:18AM 34.7521 -80.0035 210° Southwest  Level FlightAware Approximate
11:19AM 34.7088 -80.0345 210° Southwest  Level FlightAware Approximate
11:20AM 34.6654 -80.0655 210° Southwest  Level FlightAware Approximate
11:21AM 34.6221 -80.0964 210° Southwest  Level FlightAware Approximate
11:22AM 34.5788 -80.1273 210° Southwest  Level FlightAware Approximate
11:23AM 34.5354 -80.1581 210° Southwest  Level FlightAware Approximate
11:24AM 34.4922 -80.1893 212° Southwest  Level FlightAware Approximate
11:25AM 34.4498 -80.2220 212° Southwest  Level FlightAware Approximate
11:26AM 34.4074 -80.2547 212° Southwest  Level FlightAware Approximate
11:27AM 34.3650 -80.2873 212° Southwest  Level FlightAware Approximate
11:28AM 34.3226 -80.3199 212° Southwest  Level FlightAware Approximate
11:29AM 34.2801 -80.3525 213° Southwest  Level FlightAware Approximate
11:30AM 34.2379 -80.3854 213° Southwest  Level FlightAware Approximate
11:31AM 34.1956 -80.4183 213° Southwest  Level FlightAware Approximate
11:32AM 34.1534 -80.4511 213° Southwest  Level FlightAware Approximate
11:33AM 34.1106 -80.4830 211° Southwest  Level FlightAware Approximate
11:34AM 34.0674 -80.5140 211° Southwest  Level FlightAware Approximate
11:35AM 34.0242 -80.5450 211° Southwest  Level FlightAware Approximate
11:36AM 33.9810 -80.5759 211° Southwest  Level FlightAware Approximate
11:37AM 33.9378 -80.6068 211° Southwest  Level FlightAware Approximate
11:38AM 33.8946 -80.6377 211° Southwest  Level FlightAware Approximate
11:39AM 33.8514 -80.6686 211° Southwest  Level FlightAware Approximate
11:40AM 33.8082 -80.6994 211° Southwest  Level FlightAware Approximate
11:41AM 33.7649 -80.7302 211° Southwest  Level FlightAware Approximate
11:42AM 33.7217 -80.7609 211° Southwest  Level FlightAware Approximate
11:43AM 33.6784 -80.7917 211° Southwest  Level FlightAware Approximate
11:44AM 33.6356 -80.8232 212° Southwest  Level FlightAware Approximate
11:45AM 33.5928 -80.8550 212° Southwest  Level FlightAware Approximate
11:46AM 33.5501 -80.8867 212° Southwest  Level FlightAware Approximate
11:47AM 33.5074 -80.9184 212° Southwest  Level FlightAware Approximate
11:47AM 33.5125 -80.9394 212° Southwest 185 213 9,900  Level Jacksonville Center
11:48AM 33.4647 -80.9501 212° Southwest  Level FlightAware Approximate
11:48AM 33.4689 -80.9653 206° Southwest 185 213 9,900  Level Jacksonville Center
11:49AM 33.4219 -80.9818 212° Southwest  Level FlightAware Approximate
11:49AM 33.4256 -80.9986 213° Southwest 185 213 9,900  Level Jacksonville Center
11:50AM 33.3792 -81.0134 212° Southwest  Level FlightAware Approximate
11:50AM 33.3803 -81.0344 213° Southwest 190 219 9,900  Level Jacksonville Center
11:51AM 33.3364 -81.0450 212° Southwest  Level FlightAware Approximate
11:51AM 33.3350 -81.0678 212° Southwest 185 213 9,900  Level Jacksonville Center
11:52AM 33.3017 -81.0883 207° Southwest 190 219 9,900  Level Jacksonville Center
11:53AM 33.2503 -81.1267 212° Southwest 190 219 9,900  Level Jacksonville Center
11:54AM 33.2025 -81.1572 208° Southwest 190 219 9,900  Level Jacksonville Center
11:55AM 33.1614 -81.1903 214° Southwest 190 219 9,900  Level Jacksonville Center
11:56AM 33.1136 -81.2211 208° Southwest 190 219 9,900  Level Jacksonville Center
11:57AM 33.0703 -81.2517 211° Southwest 190 219 9,900  Level Jacksonville Center
11:58AM 33.0269 -81.2822 211° Southwest 190 219 9,900  Level Jacksonville Center
11:59AM 32.9833 -81.3175 214° Southwest 190 219 9,900  Level Jacksonville Center
12:00PM 32.9400 -81.3531 215° Southwest 190 219 9,900  Level Jacksonville Center
12:01PM 32.9008 -81.3883 217° Southwest 190 219 9,900  Level Jacksonville Center
12:02PM 32.8594 -81.4236 216° Southwest 190 219 9,900  Level Jacksonville Center
12:03PM 32.8161 -81.4564 212° Southwest 190 219 9,900  Level Jacksonville Center
12:04PM 32.7725 -81.4917 214° Southwest 190 219 9,900  Level Jacksonville Center
12:05PM 32.7311 -81.5269 216° Southwest 190 219 9,900  Level Jacksonville Center
12:06PM 32.6897 -81.5597 214° Southwest 190 219 9,900  Level Jacksonville Center
12:07PM 32.6506 -81.5972 219° Southwest 190 219 9,900  Level Jacksonville Center
12:08PM 32.6133 -81.6275 214° Southwest 190 219 10,000  Climbing Jacksonville Center
12:09PM 32.5678 -81.6650 215° Southwest 190 219 10,000  Level Jacksonville Center
12:10PM 32.5325 -81.6950 216° Southwest 190 219 10,000  Level Jacksonville Center
12:11PM 32.4847 -81.7325 214° Southwest 190 219 10,000  Level Jacksonville Center
12:12PM 32.4433 -81.7700 217° Southwest 190 219 10,000  Level Jacksonville Center
12:13PM 32.4061 -81.7975 212° Southwest 190 219 10,000  Level Jacksonville Center
12:14PM 32.3625 -81.8375 218° Southwest 190 219 10,000  Level Jacksonville Center
12:15PM 32.3189 -81.8700 212° Southwest 190 219 10,000  Level Jacksonville Center
12:16PM 32.2836 -81.8997 215° Southwest 190 219 10,000  Level Jacksonville Center
12:17PM 32.2381 -81.9372 215° Southwest 183 211 10,000  Level Jacksonville Center
12:18PM 32.2028 -81.9669 215° Southwest 188 216 10,000  Level Jacksonville Center
12:19PM 32.1572 -82.0042 215° Southwest 182 209 10,000  Level Jacksonville Center
12:20PM 32.1156 -82.0367 213° Southwest 182 209 10,000  Level Jacksonville Center
12:21PM 32.0783 -82.0686 216° Southwest 182 209 10,000  Level Jacksonville Center
12:22PM 32.0325 -82.1033 213° Southwest 182 209 10,000  Level Jacksonville Center
12:23PM 31.9911 -82.1381 215° Southwest 187 215 10,000  Level Jacksonville Center
12:24PM 31.9558 -82.1703 218° Southwest 187 215 10,000  Level Jacksonville Center
12:25PM 31.9058 -82.2072 212° Southwest 187 215 10,000  Level Jacksonville Center
12:26PM 31.8706 -82.2394 218° Southwest 187 215 10,000  Level Jacksonville Center
12:27PM 31.8247 -82.2789 216° Southwest 187 215 10,000  Level Jacksonville Center
12:28PM 31.7811 -82.3061 208° Southwest 187 215 10,000  Level Jacksonville Center
12:29PM 31.7478 -82.3406 221° Southwest 182 209 10,000  Level Jacksonville Center
12:30PM 31.7042 -82.3750 214° Southwest 182 209 10,000  Level Jacksonville Center
12:31PM 31.6603 -82.4092 214° Southwest 182 209 10,000  Level Jacksonville Center
12:32PM 31.6208 -82.4411 215° Southwest 182 209 10,000  Level Jacksonville Center
12:33PM 31.5769 -82.4781 216° Southwest 187 215 10,000 -240 Level Jacksonville Center
12:34PM 31.5333 -82.5122 214° Southwest 187 215 9,600 -480 Descending Jacksonville Center
12:35PM 31.4792 -82.5222 189° South 192 221 9,100 -300 Descending Jacksonville Center
12:36PM 31.4186 -82.5297 186° South 202 232 9,000 -60 Descending Jacksonville Center
12:37PM 31.3664 -82.5397 189° South 202 232 9,000 -60 Level Jacksonville Center
12:38PM 31.3122 -82.5497 189° South 202 232 8,900 -60 Descending Jacksonville Center
12:39PM 31.2600 -82.5572 187° South 202 232 8,900  Level Jacksonville Center
12:40PM 31.2036 -82.5575 180° South 197 227 8,900  Level Jacksonville Center
12:41PM 31.1492 -82.5600 182° South 197 227 8,900  Level Jacksonville Center
12:42PM 31.0950 -82.5578 178° South 197 227 8,900  Level Jacksonville Center
12:43PM 31.0428 -82.5556 178° South 197 227 8,900  Level Jacksonville Center
12:44PM 30.9886 -82.5558 180° South 197 227 8,900  Level Jacksonville Center
12:45PM 30.9342 -82.5558 180° South 197 227 8,900  Level Jacksonville Center
12:46PM 30.8800 -82.5561 180° South 197 227 8,900  Level Jacksonville Center
12:47PM 30.8256 -82.5539 178° South 197 227 8,900  Level Jacksonville Center
12:48PM 30.7733 -82.5564 182° South 197 227 8,900  Level Jacksonville Center
12:49PM 30.7192 -82.5519 176° South 197 227 8,900 -300 Level Jacksonville Center
12:50PM 30.6647 -82.5278 159° South 197 227 8,400 -660 Descending Jacksonville Center
12:51PM 30.6083 -82.5017 158° South 208 239 7,600 -900 Descending Jacksonville Center
12:52PM 30.5497 -82.4753 159° South 218 251 6,600 -900 Descending Jacksonville Center
12:53PM 30.4914 -82.4514 161° South 218 251 5,900 -840 Descending Jacksonville Center
12:54PM 30.4347 -82.4275 160° South 218 251 5,000 -900 Descending Jacksonville Center
12:55PM 30.3806 -82.4039 159° South 218 251 4,200 -960 Descending Jacksonville Center
12:56PM 30.3281 -82.3822 160° South 207 238 3,200 -600 Descending Jacksonville Center
12:57PM 30.2800 -82.3633 161° South 201 231 3,000 -180 Descending Jacksonville Center
12:58PM 30.2361 -82.3444 160° South 185 213 2,900 -540 Descending Jacksonville Center
12:59PM 30.1861 -82.3542 190° South 179 206 2,000 -540 Descending Jacksonville Center
01:00PM 30.1631 -82.3808 225° Southwest 147 169 1,900  Descending Jacksonville Center
01:01PM 30.1656 -82.4242 274° West 117 135 2,000  Climbing Jacksonville Center
01:02PM 30.1697 -82.4672 276° West 123 142 2,000 -300 Level Jacksonville Center
01:03PM 30.1700 -82.5106 270° West 129 148 1,500 -660 Descending Jacksonville Center
01:04PM 30.1764 -82.5489 281° West 134 154 700 -840 Descending Jacksonville Center